Time;durP1;ratioP1;P1;durP2;ratioP2;P2;SDS_P1;SDS_P2;PMS_P1;PMS_P2;Temp;Humidity;BMP_temperature;BMP_pressure;BME280_temperature;BME280_humidity;BME280_pressure;Samples;Min_cycle;Max_cycle;Signal;HPM_P1;HPM_P2
2021/08/26 00:07:34;;;;;;;7.00;3.20;;;;;;;;;;7376221;19;20023;-61
2021/08/26 00:10:06;;;;;;;6.38;3.13;;;;;;;;;;7376623;19;20021;-61
2021/08/26 00:12:32;;;;;;;11.60;3.05;;;;;;;;;;7375024;19;20082;-61
2021/08/26 00:14:59;;;;;;;8.82;3.40;;;;;;;;;;7374618;19;20022;-61
2021/08/26 00:17:25;;;;;;;16.80;3.50;;;;;;;;;;7375539;19;20022;-61
2021/08/26 00:19:53;;;;;;;11.13;3.20;;;;;;;;;;7376658;19;20018;-61
2021/08/26 00:22:19;;;;;;;11.40;3.00;;;;;;;;;;7375552;19;20518;-60
2021/08/26 00:24:45;;;;;;;13.63;3.13;;;;;;;;;;7374827;19;20022;-61
2021/08/26 00:27:11;;;;;;;12.77;4.03;;;;;;;;;;7371640;19;20018;-61
2021/08/26 00:29:37;;;;;;;11.88;3.53;;;;;;;;;;7376161;19;20014;-61
2021/08/26 00:32:03;;;;;;;10.90;3.35;;;;;;;;;;7374030;19;20022;-61
2021/08/26 00:34:29;;;;;;;17.80;4.00;;;;;;;;;;7371664;19;20014;-61
2021/08/26 00:36:55;;;;;;;14.13;3.75;;;;;;;;;;7372033;19;20025;-61
2021/08/26 00:39:23;;;;;;;18.42;4.05;;;;;;;;;;7374233;19;20022;-61
2021/08/26 00:41:49;;;;;;;11.27;3.78;;;;;;;;;;7375539;19;20019;-61
2021/08/26 00:44:14;;;;;;;17.35;3.90;;;;;;;;;;7371895;19;20023;-60
2021/08/26 00:46:40;;;;;;;11.60;3.97;;;;;;;;;;7376012;19;20031;-60
2021/08/26 00:49:06;;;;;;;15.13;4.05;;;;;;;;;;7374060;19;20492;-60
2021/08/26 00:51:32;;;;;;;11.43;3.25;;;;;;;;;;7373678;19;20019;-61
2021/08/26 00:53:58;;;;;;;11.45;3.50;;;;;;;;;;7374164;19;20035;-60
2021/08/26 00:56:24;;;;;;;14.70;3.90;;;;;;;;;;7371047;19;20146;-61
2021/08/26 00:58:50;;;;;;;15.25;4.03;;;;;;;;;;7365649;19;20026;-61
2021/08/26 01:01:16;;;;;;;9.10;4.07;;;;;;;;;;7372436;19;20491;-61
2021/08/26 01:03:42;;;;;;;11.30;3.80;;;;;;;;;;7374217;19;20085;-60
2021/08/26 01:06:11;;;;;;;12.77;4.05;;;;;;;;;;7373778;19;20029;-60
2021/08/26 01:08:37;;;;;;;20.70;4.30;;;;;;;;;;7373988;19;20033;-61
2021/08/26 01:11:03;;;;;;;12.07;4.10;;;;;;;;;;7374421;19;20609;-61
2021/08/26 01:13:29;;;;;;;14.85;4.18;;;;;;;;;;7372048;19;20018;-60
2021/08/26 01:15:55;;;;;;;20.13;4.40;;;;;;;;;;7373785;19;20014;-60
2021/08/26 01:18:21;;;;;;;18.40;4.18;;;;;;;;;;7372305;19;20021;-61
2021/08/26 01:20:47;;;;;;;21.98;4.40;;;;;;;;;;7376224;19;20018;-60
2021/08/26 01:23:13;;;;;;;15.88;4.63;;;;;;;;;;7371517;19;20663;-60
2021/08/26 01:25:39;;;;;;;15.80;4.30;;;;;;;;;;7374549;19;20035;-60
2021/08/26 01:28:05;;;;;;;18.85;4.20;;;;;;;;;;7372405;19;20010;-60
2021/08/26 01:30:36;;;;;;;11.60;3.55;;;;;;;;;;7373141;19;20018;-60
2021/08/26 01:33:02;;;;;;;18.55;4.50;;;;;;;;;;7373950;19;20434;-60
2021/08/26 01:35:28;;;;;;;14.13;4.57;;;;;;;;;;7370441;19;20577;-60
2021/08/26 01:37:54;;;;;;;10.93;3.92;;;;;;;;;;7371742;19;20375;-60
2021/08/26 01:40:20;;;;;;;14.68;4.55;;;;;;;;;;7372425;19;20121;-60
2021/08/26 01:42:46;;;;;;;25.60;4.32;;;;;;;;;;7374111;19;20022;-60
2021/08/26 01:45:12;;;;;;;18.02;4.82;;;;;;;;;;7369940;19;20018;-60
2021/08/26 01:47:38;;;;;;;22.42;4.43;;;;;;;;;;7372373;19;20672;-60
2021/08/26 01:50:04;;;;;;;23.65;4.60;;;;;;;;;;7373895;19;20017;-60
2021/08/26 01:52:30;;;;;;;17.10;3.85;;;;;;;;;;7371070;19;20011;-60
2021/08/26 01:54:56;;;;;;;32.38;4.57;;;;;;;;;;7372130;19;20097;-60
2021/08/26 01:57:22;;;;;;;20.08;4.00;;;;;;;;;;7372425;19;20019;-60
2021/08/26 01:59:48;;;;;;;17.35;4.30;;;;;;;;;;7374628;19;20891;-60
2021/08/26 02:02:14;;;;;;;20.58;4.28;;;;;;;;;;7372923;19;20015;-60
2021/08/26 02:04:40;;;;;;;24.58;4.68;;;;;;;;;;7372193;19;20094;-60
2021/08/26 02:07:06;;;;;;;12.98;4.40;;;;;;;;;;7372281;19;20025;-60
2021/08/26 02:09:32;;;;;;;15.90;4.20;;;;;;;;;;7371507;19;20018;-60
2021/08/26 02:11:58;;;;;;;17.08;3.95;;;;;;;;;;7371544;19;20044;-60
2021/08/26 02:14:24;;;;;;;10.93;3.90;;;;;;;;;;7369270;19;20025;-60
2021/08/26 02:16:50;;;;;;;20.25;4.10;;;;;;;;;;7372002;19;20019;-60
2021/08/26 02:19:16;;;;;;;24.63;5.40;;;;;;;;;;7370847;19;20010;-60
2021/08/26 02:21:42;;;;;;;16.77;3.90;;;;;;;;;;7373002;19;20625;-60
2021/08/26 02:24:08;;;;;;;15.13;4.28;;;;;;;;;;7371857;19;20011;-60
2021/08/26 02:26:34;;;;;;;18.10;3.92;;;;;;;;;;7370729;19;20070;-60
2021/08/26 02:29:00;;;;;;;15.73;4.20;;;;;;;;;;7371192;19;20081;-60
2021/08/26 02:31:26;;;;;;;13.02;4.47;;;;;;;;;;7369569;19;21144;-60
2021/08/26 02:33:52;;;;;;;13.48;4.00;;;;;;;;;;7370691;19;20017;-60
2021/08/26 02:36:18;;;;;;;21.73;4.35;;;;;;;;;;7370182;19;20077;-60
2021/08/26 02:38:44;;;;;;;14.88;4.68;;;;;;;;;;7372407;19;20107;-61
2021/08/26 02:41:10;;;;;;;14.13;4.25;;;;;;;;;;7374001;19;20006;-60
2021/08/26 02:43:36;;;;;;;20.67;4.53;;;;;;;;;;7373339;19;20045;-60
2021/08/26 02:46:02;;;;;;;17.52;4.25;;;;;;;;;;7374311;19;20011;-60
2021/08/26 02:48:28;;;;;;;23.02;4.90;;;;;;;;;;7373576;19;20402;-60
2021/08/26 02:50:54;;;;;;;24.98;5.25;;;;;;;;;;7374037;19;20018;-60
2021/08/26 02:53:20;;;;;;;27.13;4.72;;;;;;;;;;7372365;19;20023;-60
2021/08/26 02:55:46;;;;;;;18.48;5.53;;;;;;;;;;7372627;19;20028;-60
2021/08/26 02:58:12;;;;;;;17.13;4.97;;;;;;;;;;7370942;19;20019;-60
2021/08/26 03:00:38;;;;;;;14.68;5.18;;;;;;;;;;7372559;19;20659;-60
2021/08/26 03:03:04;;;;;;;29.58;4.80;;;;;;;;;;7372128;19;20022;-60
2021/08/26 03:05:30;;;;;;;18.42;5.00;;;;;;;;;;7366546;19;20034;-60
2021/08/26 03:07:56;;;;;;;20.92;4.75;;;;;;;;;;7369982;19;20014;-60
2021/08/26 03:10:22;;;;;;;36.15;5.72;;;;;;;;;;7370300;19;20042;-60
2021/08/26 03:12:48;;;;;;;26.25;5.40;;;;;;;;;;7371694;19;20094;-60
2021/08/26 03:15:14;;;;;;;20.02;4.97;;;;;;;;;;7368973;19;20034;-60
2021/08/26 03:17:40;;;;;;;27.80;5.15;;;;;;;;;;7370577;19;20054;-60
2021/08/26 03:20:06;;;;;;;39.15;5.93;;;;;;;;;;7372373;19;20309;-60
2021/08/26 03:22:32;;;;;;;30.52;5.22;;;;;;;;;;7370172;19;20022;-60
2021/08/26 03:24:58;;;;;;;28.33;6.30;;;;;;;;;;7369616;19;20502;-60
2021/08/26 03:27:24;;;;;;;30.50;5.20;;;;;;;;;;7368560;19;20049;-60
2021/08/26 03:29:50;;;;;;;23.58;5.75;;;;;;;;;;7370673;19;20018;-60
2021/08/26 03:32:16;;;;;;;15.57;5.00;;;;;;;;;;7367549;19;20014;-60
2021/08/26 03:34:42;;;;;;;24.13;5.43;;;;;;;;;;7369662;19;20011;-60
2021/08/26 03:37:08;;;;;;;34.08;6.35;;;;;;;;;;7368679;19;20804;-60
2021/08/26 03:39:34;;;;;;;29.50;6.45;;;;;;;;;;7371012;19;20044;-60
2021/08/26 03:42:00;;;;;;;24.08;5.88;;;;;;;;;;7370733;19;20018;-60
2021/08/26 03:44:26;;;;;;;33.45;6.13;;;;;;;;;;7367858;19;20093;-60
2021/08/26 03:46:52;;;;;;;24.17;6.40;;;;;;;;;;7372061;19;20040;-60
2021/08/26 03:49:18;;;;;;;23.00;6.03;;;;;;;;;;7376871;19;20114;-60
2021/08/26 03:51:44;;;;;;;25.60;6.45;;;;;;;;;;7374698;19;20487;-61
2021/08/26 03:54:10;;;;;;;34.45;6.13;;;;;;;;;;7375829;19;20026;-61
2021/08/26 03:56:36;;;;;;;32.05;7.65;;;;;;;;;;7378364;19;20043;-61
2021/08/26 03:59:02;;;;;;;38.90;8.60;;;;;;;;;;7376891;19;20389;-60
2021/08/26 04:01:28;;;;;;;45.65;7.95;;;;;;;;;;7376867;19;20018;-61
2021/08/26 04:03:54;;;;;;;25.90;5.40;;;;;;;;;;7376858;19;20569;-61
2021/08/26 04:06:19;;;;;;;28.50;6.10;;;;;;;;;;7376173;19;20025;-61
2021/08/26 04:08:45;;;;;;;23.50;6.22;;;;;;;;;;7375495;19;20491;-61
2021/08/26 04:11:11;;;;;;;24.70;6.47;;;;;;;;;;7374287;19;20010;-61
2021/08/26 04:13:37;;;;;;;28.63;6.22;;;;;;;;;;7374841;19;20494;-61
2021/08/26 04:16:03;;;;;;;24.90;6.28;;;;;;;;;;7377281;19;20023;-61
2021/08/26 04:18:29;;;;;;;30.52;7.45;;;;;;;;;;7374445;19;20049;-61
2021/08/26 04:20:55;;;;;;;24.60;6.18;;;;;;;;;;7376890;19;20022;-61
2021/08/26 04:23:21;;;;;;;24.52;6.68;;;;;;;;;;7375129;19;20112;-61
2021/08/26 04:25:47;;;;;;;29.52;7.00;;;;;;;;;;7376609;19;20014;-60
2021/08/26 04:28:13;;;;;;;36.05;7.47;;;;;;;;;;7374200;19;20049;-61
2021/08/26 04:30:39;;;;;;;29.73;7.80;;;;;;;;;;7375960;19;20102;-61
2021/08/26 04:33:05;;;;;;;25.55;6.32;;;;;;;;;;7373725;19;20800;-61
2021/08/26 04:35:31;;;;;;;29.05;6.28;;;;;;;;;;7374236;19;20040;-60
2021/08/26 04:37:57;;;;;;;42.35;8.88;;;;;;;;;;7372156;19;20367;-61
2021/08/26 04:40:23;;;;;;;28.77;6.20;;;;;;;;;;7374304;19;20021;-61
2021/08/26 04:42:49;;;;;;;29.52;6.60;;;;;;;;;;7374194;19;20018;-61
2021/08/26 04:45:15;;;;;;;22.98;6.07;;;;;;;;;;7372073;19;20022;-61
2021/08/26 04:47:41;;;;;;;35.03;5.78;;;;;;;;;;7375031;19;20064;-61
2021/08/26 04:50:07;;;;;;;26.92;6.78;;;;;;;;;;7374380;19;20014;-61
2021/08/26 04:52:33;;;;;;;32.63;6.88;;;;;;;;;;7375451;19;20018;-61
2021/08/26 04:54:59;;;;;;;21.70;5.82;;;;;;;;;;7371509;19;20018;-61
2021/08/26 04:57:25;;;;;;;26.17;6.28;;;;;;;;;;7370932;19;20027;-61
2021/08/26 04:59:51;;;;;;;32.58;6.68;;;;;;;;;;7375101;19;20026;-61
2021/08/26 05:02:17;;;;;;;24.05;6.97;;;;;;;;;;7373856;19;20014;-61
2021/08/26 05:04:43;;;;;;;38.10;8.07;;;;;;;;;;7374441;19;20023;-66
2021/08/26 05:07:09;;;;;;;40.90;9.18;;;;;;;;;;7373536;19;20023;-67
2021/08/26 05:09:35;;;;;;;29.67;5.88;;;;;;;;;;7375638;19;20432;-67
2021/08/26 05:12:05;;;;;;;25.38;7.35;;;;;;;;;;7374622;19;20086;-67
2021/08/26 05:14:31;;;;;;;41.05;7.63;;;;;;;;;;7373196;19;20035;-67
2021/08/26 05:16:58;;;;;;;31.20;6.80;;;;;;;;;;7374494;19;20029;-67
2021/08/26 05:19:25;;;;;;;28.17;6.82;;;;;;;;;;7373076;19;20021;-67
2021/08/26 05:21:51;;;;;;;24.33;6.32;;;;;;;;;;7376230;19;20487;-67
2021/08/26 05:24:17;;;;;;;38.45;7.07;;;;;;;;;;7373201;19;20661;-67
2021/08/26 05:26:43;;;;;;;26.80;6.18;;;;;;;;;;7376018;19;20022;-67
2021/08/26 05:29:09;;;;;;;38.80;7.07;;;;;;;;;;7372271;19;20686;-67
2021/08/26 05:31:35;;;;;;;30.50;7.45;;;;;;;;;;7373763;19;20023;-67
2021/08/26 05:34:01;;;;;;;28.63;6.75;;;;;;;;;;7374546;19;20371;-67
2021/08/26 05:36:27;;;;;;;31.88;6.85;;;;;;;;;;7373573;19;20404;-67
2021/08/26 05:38:53;;;;;;;35.38;7.20;;;;;;;;;;7373946;19;20022;-67
2021/08/26 05:41:19;;;;;;;19.98;6.45;;;;;;;;;;7374124;19;20022;-67
2021/08/26 05:43:45;;;;;;;21.10;6.88;;;;;;;;;;7374681;19;20021;-67
2021/08/26 05:46:11;;;;;;;26.02;6.25;;;;;;;;;;7371911;19;20539;-67
2021/08/26 05:48:37;;;;;;;27.50;6.68;;;;;;;;;;7372934;19;20521;-67
2021/08/26 05:51:03;;;;;;;27.27;6.40;;;;;;;;;;7373534;19;20086;-67
2021/08/26 05:53:28;;;;;;;22.58;6.00;;;;;;;;;;7372685;19;20019;-67
2021/08/26 05:55:54;;;;;;;23.00;6.82;;;;;;;;;;7373886;19;20122;-67
2021/08/26 05:58:20;;;;;;;24.63;7.07;;;;;;;;;;7371368;19;20669;-67
2021/08/26 06:00:46;;;;;;;43.65;8.18;;;;;;;;;;7374231;19;20018;-67
2021/08/26 06:03:13;;;;;;;29.30;6.88;;;;;;;;;;7373035;19;20487;-67
2021/08/26 06:05:39;;;;;;;25.13;6.63;;;;;;;;;;7374195;19;20018;-67
2021/08/26 06:08:05;;;;;;;25.27;6.32;;;;;;;;;;7372395;19;20120;-67
2021/08/26 06:10:31;;;;;;;27.38;7.68;;;;;;;;;;7371723;19;20019;-67
2021/08/26 06:12:57;;;;;;;28.55;7.45;;;;;;;;;;7374775;19;20039;-67
2021/08/26 06:15:23;;;;;;;26.20;6.90;;;;;;;;;;7371326;19;20051;-67
2021/08/26 06:17:48;;;;;;;21.08;6.80;;;;;;;;;;7372499;19;20015;-67
2021/08/26 06:20:14;;;;;;;22.08;5.65;;;;;;;;;;7372127;19;20018;-67
2021/08/26 06:22:41;;;;;;;28.92;6.60;;;;;;;;;;7373996;19;20029;-67
2021/08/26 06:25:06;;;;;;;30.35;6.38;;;;;;;;;;7370155;19;20074;-67
2021/08/26 06:27:33;;;;;;;24.95;6.03;;;;;;;;;;7371458;19;20035;-67
2021/08/26 06:29:59;;;;;;;44.60;7.65;;;;;;;;;;7372455;19;20014;-67
2021/08/26 06:32:25;;;;;;;27.35;7.05;;;;;;;;;;7354948;19;20132;-67
2021/08/26 06:34:51;;;;;;;32.78;7.15;;;;;;;;;;7368710;19;20022;-68
2021/08/26 06:37:17;;;;;;;26.13;8.55;;;;;;;;;;7367511;19;20478;-68
2021/08/26 06:39:43;;;;;;;29.75;6.28;;;;;;;;;;7352333;19;20010;-67
2021/08/26 06:42:09;;;;;;;27.88;7.00;;;;;;;;;;7371063;19;20018;-67
2021/08/26 06:44:35;;;;;;;25.20;6.45;;;;;;;;;;7371385;19;20015;-67
2021/08/26 06:47:01;;;;;;;33.50;7.63;;;;;;;;;;7370580;19;20011;-66
2021/08/26 06:49:27;;;;;;;23.52;6.55;;;;;;;;;;7369170;19;20094;-66
2021/08/26 06:51:53;;;;;;;35.00;6.78;;;;;;;;;;7369318;19;20840;-66
2021/08/26 06:54:19;;;;;;;24.30;6.00;;;;;;;;;;7368626;19;20014;-67
2021/08/26 06:56:45;;;;;;;26.00;5.90;;;;;;;;;;7372844;19;20026;-67
2021/08/26 06:59:11;;;;;;;24.60;8.48;;;;;;;;;;7370134;19;20093;-66
2021/08/26 07:01:37;;;;;;;24.88;7.00;;;;;;;;;;7371854;19;20044;-67
2021/08/26 07:04:03;;;;;;;28.65;6.60;;;;;;;;;;7369841;19;20031;-67
2021/08/26 07:06:29;;;;;;;21.52;5.50;;;;;;;;;;7370225;19;20117;-66
2021/08/26 07:08:55;;;;;;;29.63;7.03;;;;;;;;;;7367225;19;20044;-66
2021/08/26 07:11:21;;;;;;;21.90;8.90;;;;;;;;;;7368158;19;20014;-66
2021/08/26 07:13:47;;;;;;;21.38;5.43;;;;;;;;;;7369866;19;20015;-65
2021/08/26 07:16:13;;;;;;;36.60;6.80;;;;;;;;;;7368679;19;20126;-66
2021/08/26 07:18:39;;;;;;;24.92;4.57;;;;;;;;;;7367470;19;20471;-66
2021/08/26 07:21:05;;;;;;;26.73;5.30;;;;;;;;;;7370530;19;20010;-66
2021/08/26 07:23:31;;;;;;;17.00;4.20;;;;;;;;;;7376099;19;20135;-66
2021/08/26 07:25:58;;;;;;;20.38;4.93;;;;;;;;;;7377059;19;20045;-66
2021/08/26 07:28:24;;;;;;;26.80;4.65;;;;;;;;;;7371168;19;20383;-66
2021/08/26 07:30:50;;;;;;;20.13;4.78;;;;;;;;;;7373935;19;20078;-66
2021/08/26 07:33:16;;;;;;;25.90;4.53;;;;;;;;;;7373660;19;20015;-66
2021/08/26 07:35:42;;;;;;;21.23;4.55;;;;;;;;;;7375938;19;20010;-66
2021/08/26 07:38:08;;;;;;;22.88;4.47;;;;;;;;;;7371596;19;20010;-66
2021/08/26 07:40:34;;;;;;;21.23;4.55;;;;;;;;;;7376199;19;20018;-67
2021/08/26 07:43:00;;;;;;;18.27;4.65;;;;;;;;;;7375362;19;20027;-67
2021/08/26 07:45:26;;;;;;;22.45;3.92;;;;;;;;;;7372379;19;20025;-67
2021/08/26 07:47:52;;;;;;;17.85;4.53;;;;;;;;;;7375141;19;20010;-66
2021/08/26 07:50:20;;;;;;;27.33;4.38;;;;;;;;;;7375259;19;20040;-67
2021/08/26 07:52:46;;;;;;;22.20;3.97;;;;;;;;;;7376665;19;20023;-66
2021/08/26 07:55:12;;;;;;;13.60;3.70;;;;;;;;;;7373758;19;20007;-67
2021/08/26 07:57:38;;;;;;;21.80;6.03;;;;;;;;;;7376766;19;20086;-67
2021/08/26 08:00:04;;;;;;;19.13;4.88;;;;;;;;;;7376567;19;20021;-66
2021/08/26 08:02:30;;;;;;;19.75;4.20;;;;;;;;;;7378877;19;20022;-67
2021/08/26 08:04:56;;;;;;;23.30;4.57;;;;;;;;;;7376203;19;20014;-67
2021/08/26 08:07:22;;;;;;;33.20;9.95;;;;;;;;;;7374798;19;20049;-66
2021/08/26 08:09:48;;;;;;;14.32;3.28;;;;;;;;;;7377000;19;20014;-66
2021/08/26 08:12:14;;;;;;;10.85;4.10;;;;;;;;;;7373409;19;20003;-66
2021/08/26 08:14:42;;;;;;;10.10;2.95;;;;;;;;;;7374313;19;20011;-66
2021/08/26 08:17:08;;;;;;;7.80;2.50;;;;;;;;;;7374334;19;20025;-66
2021/08/26 08:19:34;;;;;;;8.05;2.63;;;;;;;;;;7376118;19;20018;-66
2021/08/26 08:22:01;;;;;;;9.52;2.30;;;;;;;;;;7374431;19;20115;-66
2021/08/26 08:24:27;;;;;;;10.30;2.30;;;;;;;;;;7371414;19;20022;-66
2021/08/26 08:26:53;;;;;;;10.60;2.70;;;;;;;;;;7375286;19;20010;-66
2021/08/26 08:29:19;;;;;;;7.07;2.25;;;;;;;;;;7372743;19;20091;-66
2021/08/26 08:31:45;;;;;;;8.13;2.38;;;;;;;;;;7372402;19;20029;-66
2021/08/26 08:34:11;;;;;;;17.55;2.75;;;;;;;;;;7373349;19;20018;-66
2021/08/26 08:36:37;;;;;;;15.98;2.10;;;;;;;;;;7374560;19;20010;-66
2021/08/26 08:39:03;;;;;;;10.23;2.70;;;;;;;;;;7369918;19;20031;-66
2021/08/26 08:41:30;;;;;;;11.48;1.83;;;;;;;;;;7374833;19;20022;-66
2021/08/26 08:43:57;;;;;;;15.55;3.50;;;;;;;;;;7374130;19;20018;-67
2021/08/26 08:46:23;;;;;;;10.05;1.92;;;;;;;;;;7373616;19;20025;-67
2021/08/26 08:48:49;;;;;;;11.95;1.75;;;;;;;;;;7374036;19;20019;-66
2021/08/26 08:51:15;;;;;;;7.85;2.03;;;;;;;;;;7372465;19;20010;-67
2021/08/26 08:53:41;;;;;;;21.52;2.90;;;;;;;;;;7372930;19;20025;-67
2021/08/26 08:56:07;;;;;;;9.23;2.10;;;;;;;;;;7371216;19;20022;-67
2021/08/26 08:58:33;;;;;;;19.38;3.25;;;;;;;;;;7372130;19;20021;-67
2021/08/26 09:00:59;;;;;;;12.20;2.05;;;;;;;;;;7371340;19;20022;-67
2021/08/26 09:03:26;;;;;;;9.70;2.28;;;;;;;;;;7372749;19;20050;-66
2021/08/26 09:05:52;;;;;;;12.07;5.45;;;;;;;;;;7374717;19;20512;-66
2021/08/26 09:08:18;;;;;;;10.48;3.00;;;;;;;;;;7371081;19;20014;-66
2021/08/26 09:10:44;;;;;;;8.73;1.98;;;;;;;;;;7373926;19;20014;-66
2021/08/26 09:13:10;;;;;;;8.85;2.13;;;;;;;;;;7372340;19;20074;-67
2021/08/26 09:15:36;;;;;;;12.20;3.15;;;;;;;;;;7371371;19;20018;-67
2021/08/26 09:18:02;;;;;;;8.02;1.70;;;;;;;;;;7371079;19;20018;-66
2021/08/26 09:20:28;;;;;;;9.68;1.80;;;;;;;;;;7373527;19;20011;-66
2021/08/26 09:22:54;;;;;;;11.68;2.60;;;;;;;;;;7371404;19;20039;-66
2021/08/26 09:25:20;;;;;;;15.02;2.03;;;;;;;;;;7370859;19;20018;-66
2021/08/26 09:27:46;;;;;;;11.52;2.47;;;;;;;;;;7373221;19;20015;-66
2021/08/26 09:30:12;;;;;;;14.05;2.30;;;;;;;;;;7370762;19;20059;-66
2021/08/26 09:32:38;;;;;;;10.57;2.17;;;;;;;;;;7373743;19;20035;-69
2021/08/26 09:35:04;;;;;;;18.48;3.88;;;;;;;;;;7369617;19;20018;-68
2021/08/26 09:37:30;;;;;;;21.60;7.63;;;;;;;;;;7370026;19;20078;-67
2021/08/26 09:39:56;;;;;;;8.27;2.78;;;;;;;;;;7372393;19;21042;-67
2021/08/26 09:42:22;;;;;;;8.10;2.85;;;;;;;;;;7371153;19;20018;-67
2021/08/26 09:44:48;;;;;;;7.90;2.05;;;;;;;;;;7368863;19;20014;-68
2021/08/26 09:47:14;;;;;;;10.27;2.08;;;;;;;;;;7370450;19;20011;-67
2021/08/26 09:49:40;;;;;;;11.43;2.40;;;;;;;;;;7371269;19;20018;-67
2021/08/26 09:52:06;;;;;;;5.07;1.73;;;;;;;;;;7367994;19;20019;-67
2021/08/26 09:54:32;;;;;;;13.27;2.55;;;;;;;;;;7370131;19;20105;-67
2021/08/26 09:56:58;;;;;;;12.45;2.78;;;;;;;;;;7369222;19;20730;-67
2021/08/26 09:59:24;;;;;;;11.18;2.58;;;;;;;;;;7370608;19;20022;-67
2021/08/26 10:01:50;;;;;;;7.07;2.08;;;;;;;;;;7371364;19;20035;-67
2021/08/26 10:04:16;;;;;;;8.15;2.13;;;;;;;;;;7368902;19;20022;-67
2021/08/26 10:06:42;;;;;;;11.50;2.10;;;;;;;;;;7371904;19;20010;-66
2021/08/26 10:09:08;;;;;;;8.90;2.20;;;;;;;;;;7368927;19;20094;-67
2021/08/26 10:11:34;;;;;;;10.13;2.60;;;;;;;;;;7370302;19;20371;-66
2021/08/26 10:14:00;;;;;;;32.88;14.05;;;;;;;;;;7368089;19;20026;-66
2021/08/26 10:16:26;;;;;;;7.10;2.13;;;;;;;;;;7371662;19;20018;-66
2021/08/26 10:18:52;;;;;;;12.30;2.28;;;;;;;;;;7370167;19;20022;-66
2021/08/26 10:21:18;;;;;;;8.80;2.60;;;;;;;;;;7369379;19;20031;-66
2021/08/26 10:23:47;;;;;;;11.52;2.20;;;;;;;;;;7370072;19;20097;-66
2021/08/26 10:26:13;;;;;;;11.07;2.42;;;;;;;;;;7369974;19;20014;-66
2021/08/26 10:28:39;;;;;;;7.05;1.92;;;;;;;;;;7369372;19;20252;-65
2021/08/26 10:31:05;;;;;;;4.93;1.65;;;;;;;;;;7366039;19;20023;-66
2021/08/26 10:33:33;;;;;;;6.10;2.13;;;;;;;;;;7369512;19;20097;-66
2021/08/26 10:36:00;;;;;;;6.57;1.70;;;;;;;;;;7369287;19;20018;-66
2021/08/26 10:38:28;;;;;;;4.43;1.70;;;;;;;;;;7369474;19;20097;-65
2021/08/26 10:40:54;;;;;;;4.60;1.20;;;;;;;;;;7369418;19;20046;-66
2021/08/26 10:43:20;;;;;;;5.03;1.00;;;;;;;;;;7366612;19;20116;-66
2021/08/26 10:45:46;;;;;;;5.45;1.45;;;;;;;;;;7369365;19;20022;-66
2021/08/26 10:48:12;;;;;;;3.70;1.08;;;;;;;;;;7367211;19;20023;-66
2021/08/26 10:50:38;;;;;;;2.42;0.90;;;;;;;;;;7366658;19;20067;-66
2021/08/26 10:53:04;;;;;;;4.28;1.27;;;;;;;;;;7368814;19;20015;-66
2021/08/26 10:55:31;;;;;;;10.13;1.50;;;;;;;;;;7365830;19;20549;-66
2021/08/26 10:57:57;;;;;;;2.15;0.70;;;;;;;;;;7368498;19;20046;-65
2021/08/26 11:00:23;;;;;;;5.20;0.98;;;;;;;;;;7368345;19;20682;-65
2021/08/26 11:02:49;;;;;;;1.73;0.85;;;;;;;;;;7370586;19;20014;-65
2021/08/26 11:05:15;;;;;;;3.97;0.90;;;;;;;;;;7367764;19;20028;-65
2021/08/26 11:07:42;;;;;;;3.35;1.10;;;;;;;;;;7366461;19;20014;-66
2021/08/26 11:10:08;;;;;;;1.48;0.70;;;;;;;;;;7369876;19;20699;-66
2021/08/26 11:12:34;;;;;;;3.47;0.95;;;;;;;;;;7368799;19;20010;-66
2021/08/26 11:15:00;;;;;;;1.95;0.88;;;;;;;;;;7370108;19;20031;-66
2021/08/26 11:17:26;;;;;;;2.53;0.68;;;;;;;;;;7369710;19;20018;-66
2021/08/26 11:19:53;;;;;;;5.90;1.00;;;;;;;;;;7368459;19;20463;-66
2021/08/26 11:22:19;;;;;;;4.00;1.08;;;;;;;;;;7369497;19;20773;-67
2021/08/26 11:24:47;;;;;;;3.58;0.70;;;;;;;;;;7367660;19;20014;-66
2021/08/26 11:27:13;;;;;;;5.85;0.80;;;;;;;;;;7367437;19;20014;-69
2021/08/26 11:29:39;;;;;;;4.28;0.80;;;;;;;;;;7370259;19;20018;-65
2021/08/26 11:32:05;;;;;;;7.03;1.27;;;;;;;;;;7367224;19;20011;-65
2021/08/26 11:34:31;;;;;;;7.40;1.77;;;;;;;;;;7367156;19;20022;-65
2021/08/26 11:36:57;;;;;;;5.35;2.00;;;;;;;;;;7367883;19;20018;-65
2021/08/26 11:39:23;;;;;;;6.30;1.25;;;;;;;;;;7367610;19;20720;-66
2021/08/26 11:41:49;;;;;;;12.02;3.15;;;;;;;;;;7367642;19;20015;-66
2021/08/26 11:44:15;;;;;;;3.08;0.90;;;;;;;;;;7366929;19;20968;-67
2021/08/26 11:46:41;;;;;;;7.63;1.20;;;;;;;;;;7370863;19;20011;-67
2021/08/26 11:49:07;;;;;;;4.82;1.20;;;;;;;;;;7368220;19;20053;-67
2021/08/26 11:51:33;;;;;;;6.43;0.77;;;;;;;;;;7367819;19;20050;-67
2021/08/26 11:53:59;;;;;;;2.92;0.90;;;;;;;;;;7369385;19;20019;-67
2021/08/26 11:56:25;;;;;;;4.10;0.75;;;;;;;;;;7368812;19;20085;-67
2021/08/26 11:58:51;;;;;;;2.92;0.50;;;;;;;;;;7369608;19;20035;-66
2021/08/26 12:01:17;;;;;;;3.78;0.70;;;;;;;;;;7367209;19;20023;-66
2021/08/26 12:03:43;;;;;;;5.88;0.70;;;;;;;;;;7367174;19;20015;-66
2021/08/26 12:06:09;;;;;;;2.70;0.57;;;;;;;;;;7367807;19;20026;-66
2021/08/26 12:08:35;;;;;;;4.28;0.85;;;;;;;;;;7375698;19;20018;-67
2021/08/26 12:11:01;;;;;;;6.30;2.95;;;;;;;;;;7375121;19;20019;-67
2021/08/26 12:13:27;;;;;;;20.65;5.28;;;;;;;;;;7374952;19;20070;-66
2021/08/26 12:15:56;;;;;;;12.35;4.90;;;;;;;;;;7375411;19;20026;-66
2021/08/26 12:18:22;;;;;;;7.85;2.85;;;;;;;;;;7376240;19;20097;-66
2021/08/26 12:20:48;;;;;;;7.97;2.25;;;;;;;;;;7375123;19;20439;-60
2021/08/26 12:23:14;;;;;;;7.22;2.53;;;;;;;;;;7375106;19;20098;-59
2021/08/26 12:25:41;;;;;;;2.13;0.77;;;;;;;;;;7377107;19;20037;-60
2021/08/26 12:28:07;;;;;;;2.83;0.70;;;;;;;;;;7374190;19;20028;-60
2021/08/26 12:30:33;;;;;;;3.65;0.60;;;;;;;;;;7376409;19;20022;-60
2021/08/26 12:32:59;;;;;;;2.55;0.55;;;;;;;;;;7374466;19;20353;-60
2021/08/26 12:35:25;;;;;;;1.80;0.60;;;;;;;;;;7372657;19;20023;-59
2021/08/26 12:37:51;;;;;;;4.88;1.00;;;;;;;;;;7374754;19;20903;-60
2021/08/26 12:40:17;;;;;;;3.40;0.82;;;;;;;;;;7376576;19;20026;-59
2021/08/26 12:42:43;;;;;;;4.40;0.80;;;;;;;;;;7374206;19;20280;-59
2021/08/26 12:45:09;;;;;;;1.98;0.65;;;;;;;;;;7374038;19;20047;-60
2021/08/26 12:47:35;;;;;;;4.25;0.70;;;;;;;;;;7376278;19;20483;-59
2021/08/26 12:50:01;;;;;;;3.65;0.77;;;;;;;;;;7374678;19;20019;-59
2021/08/26 12:52:27;;;;;;;3.53;0.82;;;;;;;;;;7373203;19;20025;-59
2021/08/26 12:54:53;;;;;;;3.63;0.60;;;;;;;;;;7373451;19;20530;-59
2021/08/26 12:57:19;;;;;;;4.75;0.63;;;;;;;;;;7374658;19;20026;-59
2021/08/26 12:59:45;;;;;;;4.55;0.50;;;;;;;;;;7372241;19;20018;-60
2021/08/26 13:02:11;;;;;;;1.55;0.57;;;;;;;;;;7374738;19;20015;-59
2021/08/26 13:04:37;;;;;;;3.15;0.68;;;;;;;;;;7371373;19;20022;-59
2021/08/26 13:07:03;;;;;;;2.40;0.40;;;;;;;;;;7373298;19;20043;-60
2021/08/26 13:09:29;;;;;;;3.72;1.83;;;;;;;;;;7372832;19;20022;-59
2021/08/26 13:11:56;;;;;;;3.13;1.60;;;;;;;;;;7372265;19;20022;-60
2021/08/26 13:14:22;;;;;;;4.45;1.75;;;;;;;;;;7372637;19;20015;-59
2021/08/26 13:16:48;;;;;;;1.27;0.50;;;;;;;;;;7373383;19;20037;-59
2021/08/26 13:19:14;;;;;;;2.05;0.80;;;;;;;;;;7370269;19;20023;-59
2021/08/26 13:21:40;;;;;;;4.07;1.73;;;;;;;;;;7370156;19;20516;-59
2021/08/26 13:24:06;;;;;;;4.20;1.38;;;;;;;;;;7371693;19;20162;-59
2021/08/26 13:26:32;;;;;;;4.25;0.68;;;;;;;;;;7369871;19;20014;-59
2021/08/26 13:28:58;;;;;;;4.15;0.50;;;;;;;;;;7372189;19;20014;-59
2021/08/26 13:31:24;;;;;;;3.78;1.02;;;;;;;;;;7367457;19;20007;-59
2021/08/26 13:33:51;;;;;;;1.33;0.47;;;;;;;;;;7370672;19;20072;-59
2021/08/26 13:36:17;;;;;;;3.08;0.60;;;;;;;;;;7372827;19;20022;-59
2021/08/26 13:38:43;;;;;;;2.83;0.70;;;;;;;;;;7372359;19;20018;-60
2021/08/26 13:41:09;;;;;;;3.67;1.60;;;;;;;;;;7369782;19;20010;-59
2021/08/26 13:43:35;;;;;;;8.00;2.42;;;;;;;;;;7371170;19;20022;-60
2021/08/26 13:46:01;;;;;;;3.58;0.80;;;;;;;;;;7372656;19;20014;-60
2021/08/26 13:48:27;;;;;;;7.28;1.88;;;;;;;;;;7370314;19;20044;-60
2021/08/26 13:50:53;;;;;;;3.65;1.55;;;;;;;;;;7370805;19;20663;-59
2021/08/26 13:53:19;;;;;;;0.85;0.65;;;;;;;;;;7369955;19;20018;-60
2021/08/26 13:55:45;;;;;;;0.60;0.60;;;;;;;;;;7371818;19;20040;-60
2021/08/26 13:58:11;;;;;;;4.25;0.60;;;;;;;;;;7370826;19;20040;-59
2021/08/26 14:00:37;;;;;;;1.77;0.90;;;;;;;;;;7371321;19;20041;-60
2021/08/26 14:03:03;;;;;;;3.92;1.00;;;;;;;;;;7369793;19;20011;-59
2021/08/26 14:05:29;;;;;;;5.15;1.30;;;;;;;;;;7369475;19;20035;-60
2021/08/26 14:07:55;;;;;;;2.65;1.20;;;;;;;;;;7371391;19;20010;-60
2021/08/26 14:10:21;;;;;;;2.50;1.40;;;;;;;;;;7370817;19;20027;-60
2021/08/26 14:12:47;;;;;;;1.70;1.10;;;;;;;;;;7369854;19;20018;-60
2021/08/26 14:15:13;;;;;;;1.55;0.70;;;;;;;;;;7366292;19;20030;-60
2021/08/26 14:17:39;;;;;;;2.47;0.68;;;;;;;;;;7370843;19;20007;-60
2021/08/26 14:20:05;;;;;;;1.63;0.80;;;;;;;;;;7371796;19;20028;-59
2021/08/26 14:22:31;;;;;;;9.38;2.92;;;;;;;;;;7371711;19;20994;-60
2021/08/26 14:24:57;;;;;;;5.40;2.35;;;;;;;;;;7369260;19;20380;-60
2021/08/26 14:27:23;;;;;;;5.05;2.33;;;;;;;;;;7367587;19;20757;-60
2021/08/26 14:29:49;;;;;;;7.15;2.72;;;;;;;;;;7370763;19;20010;-60
2021/08/26 14:32:15;;;;;;;9.95;3.53;;;;;;;;;;7366573;19;20040;-60